createdAt,value
2023-05-15T00:00:37.906Z,99444.47
2023-05-15T00:03:05.540Z,99445.50
2023-05-15T00:05:32.913Z,99437.19
2023-05-15T00:08:00.137Z,99440.22
2023-05-15T00:10:27.654Z,99453.81
2023-05-15T00:12:55.374Z,99459.28
2023-05-15T00:15:22.732Z,99451.41
2023-05-15T00:17:50.621Z,99452.72
2023-05-15T00:20:17.859Z,99462.63
2023-05-15T00:22:45.092Z,99464.81
2023-05-15T00:25:12.652Z,99467.69
2023-05-15T00:27:39.944Z,99471.47
2023-05-15T00:30:07.826Z,99470.44
2023-05-15T00:32:35.422Z,99464.59
2023-05-15T00:35:02.733Z,99467.44
2023-05-15T00:37:31.437Z,99456.31
2023-05-15T00:39:58.930Z,99455.81
2023-05-15T00:42:26.129Z,99453.81
2023-05-15T00:44:53.685Z,99454.00
2023-05-15T00:47:21.494Z,99453.25
2023-05-15T00:49:49.731Z,99447.16
2023-05-15T00:52:19.485Z,99449.16
2023-05-15T00:54:47.355Z,99436.31
2023-05-15T00:57:14.929Z,99432.84
2023-05-15T00:59:43.525Z,99438.88
2023-05-15T01:02:12.413Z,99431.16
2023-05-15T01:04:39.852Z,99415.38
2023-05-15T01:07:08.390Z,99419.75
2023-05-15T01:09:37.057Z,99411.94
2023-05-15T01:12:05.420Z,99408.34
2023-05-15T01:14:32.479Z,99408.09
2023-05-15T01:17:00.055Z,99408.47
2023-05-15T01:19:27.453Z,99402.12
2023-05-15T01:22:13.978Z,99393.19
2023-05-15T01:24:59.858Z,99388.81
2023-05-15T01:27:57.047Z,99392.47
2023-05-15T01:30:31.427Z,99406.81
2023-05-15T01:33:22.963Z,99408.88
2023-05-15T01:36:07.466Z,99400.94
2023-05-15T01:38:41.982Z,99392.28
2023-05-15T01:41:27.362Z,99372.34
2023-05-15T01:44:11.939Z,99388.53
2023-05-15T01:46:44.639Z,99391.25
2023-05-15T01:49:14.276Z,99389.06
2023-05-15T01:51:42.702Z,99389.94
2023-05-15T01:54:11.095Z,99381.69
2023-05-15T01:56:38.916Z,99387.19
2023-05-15T01:59:07.431Z,99395.50
2023-05-15T02:01:36.786Z,99400.88
2023-05-15T02:04:04.595Z,99408.88
2023-05-15T02:06:32.115Z,99407.28
2023-05-15T02:09:01.711Z,99403.44
2023-05-15T02:11:31.056Z,99410.12
2023-05-15T02:13:59.400Z,99416.91
2023-05-15T02:16:26.626Z,99431.81
2023-05-15T02:18:55.113Z,99442.47
2023-05-15T02:21:22.738Z,99440.75
2023-05-15T02:23:49.860Z,99443.75
2023-05-15T02:26:47.616Z,99449.59
2023-05-15T02:29:30.343Z,99455.38
2023-05-15T02:32:10.575Z,99448.78
2023-05-15T02:34:51.659Z,99444.94
2023-05-15T02:37:25.199Z,99432.22
2023-05-15T02:39:54.676Z,99433.06
2023-05-15T02:42:22.110Z,99432.91
2023-05-15T02:44:50.013Z,99430.56
2023-05-15T02:47:17.866Z,99430.25
2023-05-15T02:49:45.558Z,99420.31
2023-05-15T02:52:13.100Z,99420.97
2023-05-15T02:54:41.133Z,99419.31
2023-05-15T02:57:08.268Z,99404.59
2023-05-15T02:59:35.804Z,99413.63
2023-05-15T03:02:03.804Z,99412.50
2023-05-15T03:04:31.129Z,99418.00
2023-05-15T03:06:58.307Z,99406.22
2023-05-15T03:09:25.996Z,99407.25
2023-05-15T03:11:53.353Z,99410.38
2023-05-15T03:14:20.565Z,99396.66
2023-05-15T03:16:48.060Z,99375.09
2023-05-15T03:19:15.550Z,99361.56
2023-05-15T03:21:42.792Z,99366.63
2023-05-15T03:24:10.469Z,99351.59
2023-05-15T03:26:37.728Z,99357.50
2023-05-15T03:29:05.038Z,99347.75
2023-05-15T03:31:32.520Z,99356.56
2023-05-15T03:33:59.751Z,99349.59
2023-05-15T03:36:26.952Z,99345.03
2023-05-15T03:38:54.440Z,99351.06
2023-05-15T03:41:22.125Z,99352.94
2023-05-15T03:43:49.294Z,99358.56
2023-05-15T03:46:18.784Z,99363.84
2023-05-15T03:48:45.995Z,99357.88
2023-05-15T03:51:13.373Z,99345.56
2023-05-15T03:53:40.760Z,99345.03
2023-05-15T03:56:07.952Z,99345.22
2023-05-15T03:58:35.207Z,99335.75
2023-05-15T04:01:02.595Z,99338.78
2023-05-15T04:03:30.032Z,99335.84
2023-05-15T04:05:57.215Z,99326.88
2023-05-15T04:08:24.394Z,99322.19
2023-05-15T04:10:52.341Z,99315.44
2023-05-15T04:13:19.416Z,99319.91
2023-05-15T04:15:46.706Z,99317.28
2023-05-15T04:18:14.341Z,99320.66
2023-05-15T04:20:41.527Z,99327.25
2023-05-15T04:23:08.878Z,99316.66
2023-05-15T04:25:36.661Z,99322.25
2023-05-15T04:28:03.862Z,99333.19
2023-05-15T04:30:31.200Z,99351.09
2023-05-15T04:32:58.767Z,99354.09
2023-05-15T04:35:26.202Z,99354.09
2023-05-15T04:37:53.662Z,99354.44
2023-05-15T04:40:21.285Z,99359.75
2023-05-15T04:42:48.597Z,99362.94
2023-05-15T04:45:15.760Z,99366.59
2023-05-15T04:47:43.271Z,99360.53
2023-05-15T04:50:13.558Z,99377.25
2023-05-15T04:52:40.980Z,99393.69
2023-05-15T04:55:09.576Z,99394.34
2023-05-15T04:57:36.694Z,99395.69
2023-05-15T05:00:12.101Z,99394.19
2023-05-15T05:02:40.376Z,99390.03
2023-05-15T05:05:08.321Z,99395.69
2023-05-15T05:07:35.833Z,99397.53
2023-05-15T05:10:05.561Z,99400.41
2023-05-15T05:12:32.647Z,99393.78
2023-05-15T05:15:00.160Z,99398.72
2023-05-15T05:17:28.301Z,99410.00
2023-05-15T05:19:55.670Z,99414.34
2023-05-15T05:22:22.804Z,99421.78
2023-05-15T05:24:50.221Z,99422.78
2023-05-15T05:27:17.413Z,99413.47
2023-05-15T05:29:44.604Z,99417.31
2023-05-15T05:32:12.706Z,99406.03
2023-05-15T05:34:39.941Z,99392.28
2023-05-15T05:37:07.177Z,99394.41
2023-05-15T05:39:34.944Z,99390.13
2023-05-15T05:42:02.225Z,99387.12
2023-05-15T05:44:29.412Z,99400.03
2023-05-15T05:46:56.934Z,99408.25
2023-05-15T05:49:24.205Z,99406.37
2023-05-15T05:51:51.509Z,99416.09
2023-05-15T05:54:19.120Z,99433.69
2023-05-15T05:56:46.362Z,99427.56
2023-05-15T05:59:13.562Z,99422.09
2023-05-15T06:01:41.084Z,99411.47
2023-05-15T06:04:08.569Z,99419.69
2023-05-15T06:06:35.833Z,99416.06
2023-05-15T06:09:04.181Z,99427.53
2023-05-15T06:11:33.091Z,99429.56
2023-05-15T06:14:00.251Z,99435.66
2023-05-15T06:16:27.547Z,99435.91
2023-05-15T06:18:55.060Z,99442.53
2023-05-15T06:21:22.395Z,99437.34
2023-05-15T06:23:49.545Z,99454.75
2023-05-15T06:26:17.054Z,99447.72
2023-05-15T06:28:44.819Z,99443.47
2023-05-15T06:31:12.124Z,99443.44
2023-05-15T06:33:39.551Z,99443.16
2023-05-15T06:36:07.068Z,99439.75
2023-05-15T06:38:34.226Z,99432.94
2023-05-15T06:41:01.727Z,99424.56
2023-05-15T06:43:28.924Z,99420.97
2023-05-15T06:45:56.144Z,99417.78
2023-05-15T06:48:23.585Z,99415.63
2023-05-15T06:50:50.778Z,99412.91
2023-05-15T06:53:18.746Z,99425.34
2023-05-15T06:55:46.385Z,99423.03
2023-05-15T06:58:13.634Z,99421.50
2023-05-15T07:00:40.726Z,99428.47
2023-05-15T07:03:08.299Z,99441.91
2023-05-15T07:05:35.601Z,99437.47
2023-05-15T07:08:06.484Z,99440.53
2023-05-15T07:10:34.152Z,99436.97
2023-05-15T07:13:02.333Z,99451.38
2023-05-15T07:15:29.571Z,99450.16
2023-05-15T07:17:57.170Z,99453.66
2023-05-15T07:20:27.285Z,99464.78
2023-05-15T07:22:57.076Z,99479.09
2023-05-15T07:25:25.706Z,99479.34
2023-05-15T07:27:53.519Z,99475.09
2023-05-15T07:30:21.086Z,99483.13
2023-05-15T07:32:48.387Z,99479.75
2023-05-15T07:35:16.163Z,99463.56
2023-05-15T07:37:43.623Z,99457.22
2023-05-15T07:40:11.249Z,99450.00
2023-05-15T07:42:39.842Z,99444.00
2023-05-15T07:45:07.892Z,99440.91
2023-05-15T07:47:36.151Z,99439.53
2023-05-15T07:50:03.563Z,99436.53
2023-05-15T07:52:31.136Z,99435.03
2023-05-15T07:54:58.434Z,99441.28
2023-05-15T07:57:26.608Z,99445.72
2023-05-15T07:59:54.178Z,99460.37
2023-05-15T08:02:21.484Z,99471.31
2023-05-15T08:04:49.337Z,99478.06
2023-05-15T08:07:16.634Z,99479.69
2023-05-15T08:09:43.843Z,99476.00
2023-05-15T08:12:23.680Z,99469.78
2023-05-15T08:14:51.983Z,99481.22
2023-05-15T08:17:20.760Z,99474.63
2023-05-15T08:19:48.613Z,99469.97
2023-05-15T08:22:16.095Z,99478.84
2023-05-15T08:24:44.961Z,99487.41
2023-05-15T08:27:12.155Z,99491.63
2023-05-15T08:29:39.863Z,99486.66
2023-05-15T08:32:08.760Z,99486.84
2023-05-15T08:34:36.052Z,99485.94
2023-05-15T08:37:04.548Z,99473.56
2023-05-15T08:39:32.074Z,99473.38
2023-05-15T08:42:20.624Z,99473.34
2023-05-15T08:47:21.127Z,99463.81
2023-05-15T08:50:05.029Z,99470.31
2023-05-15T08:52:33.317Z,99472.03
2023-05-15T08:55:01.593Z,99469.34
2023-05-15T08:57:29.075Z,99465.59
2023-05-15T08:59:57.154Z,99464.75
2023-05-15T09:02:28.055Z,99457.97
2023-05-15T09:04:55.418Z,99470.06
2023-05-15T09:07:23.213Z,99484.31
2023-05-15T09:09:51.622Z,99482.22
2023-05-15T09:12:19.389Z,99485.59
2023-05-15T09:14:46.781Z,99477.72
2023-05-15T09:17:17.682Z,99478.97
2023-05-15T09:19:44.995Z,99491.41
2023-05-15T09:22:24.154Z,99489.97
2023-05-15T09:24:53.341Z,99499.28
2023-05-15T09:27:20.891Z,99497.56
2023-05-15T09:29:51.429Z,99509.41
2023-05-15T09:32:19.470Z,99517.78
2023-05-15T09:34:47.042Z,99521.97
2023-05-15T09:37:34.681Z,99521.78
2023-05-15T09:40:12.459Z,99514.44
2023-05-15T09:42:39.868Z,99512.00
2023-05-15T09:45:17.989Z,99525.78
2023-05-15T09:47:46.941Z,99523.16
2023-05-15T09:50:26.635Z,99518.56
2023-05-15T09:52:54.226Z,99510.16
2023-05-15T09:55:23.002Z,99520.41
2023-05-15T09:58:14.381Z,99514.78
2023-05-15T10:00:47.609Z,99531.41
2023-05-15T10:03:19.763Z,99518.56
2023-05-15T10:05:47.331Z,99520.09
2023-05-15T10:08:16.000Z,99523.75
2023-05-15T10:10:44.258Z,99515.53
2023-05-15T10:13:12.017Z,99514.38
2023-05-15T10:15:39.901Z,99522.31
2023-05-15T10:18:08.131Z,99517.75
2023-05-15T10:20:36.012Z,99526.75
2023-05-15T10:23:07.799Z,99529.69
2023-05-15T10:25:41.667Z,99515.13
2023-05-15T10:28:10.537Z,99515.78
2023-05-15T10:30:38.949Z,99523.59
2023-05-15T10:33:08.055Z,99522.88
2023-05-15T10:35:36.440Z,99525.44
2023-05-15T10:38:05.898Z,99524.09
2023-05-15T10:40:35.254Z,99525.22
2023-05-15T10:43:03.754Z,99533.00
2023-05-15T10:45:31.871Z,99525.31
2023-05-15T10:47:59.855Z,99521.13
2023-05-15T10:50:27.813Z,99519.69
2023-05-15T10:52:55.895Z,99522.16
2023-05-15T10:55:23.683Z,99520.19
2023-05-15T10:57:51.049Z,99517.97
2023-05-15T11:00:24.887Z,99515.41
2023-05-15T11:02:56.682Z,99522.81
2023-05-15T11:05:25.453Z,99517.41
2023-05-15T11:08:31.344Z,99506.41
2023-05-15T11:10:58.822Z,99511.59
2023-05-15T11:13:26.221Z,99505.63
2023-05-15T11:15:54.097Z,99510.28
2023-05-15T11:18:21.813Z,99502.00
2023-05-15T11:20:52.221Z,99509.00
2023-05-15T11:23:22.366Z,99505.09
2023-05-15T11:25:55.020Z,99504.25
2023-05-15T11:28:23.962Z,99499.34
2023-05-15T11:30:54.762Z,99507.72
2023-05-15T11:33:22.271Z,99514.06
2023-05-15T11:35:58.542Z,99508.47
2023-05-15T11:38:26.727Z,99493.47
2023-05-15T11:41:03.103Z,99496.38
2023-05-15T11:43:31.744Z,99507.19
2023-05-15T11:46:05.298Z,99497.78
2023-05-15T11:48:43.024Z,99491.63
2023-05-15T11:51:31.949Z,99492.97
2023-05-15T11:54:01.207Z,99486.72
2023-05-15T11:56:29.046Z,99486.03
2023-05-15T11:58:57.890Z,99497.16
2023-05-15T12:01:25.431Z,99496.69
2023-05-15T12:03:54.808Z,99486.78
2023-05-15T12:06:23.255Z,99496.44
2023-05-15T12:08:52.565Z,99494.78
2023-05-15T12:11:24.719Z,99500.88
2023-05-15T12:13:56.100Z,99500.13
2023-05-15T12:16:28.739Z,99494.72
2023-05-15T12:18:59.455Z,99503.03
2023-05-15T12:24:29.195Z,99501.03
2023-05-15T12:26:57.800Z,99503.34
2023-05-15T12:29:26.631Z,99512.00
2023-05-15T12:31:54.333Z,99520.63
2023-05-15T12:34:22.297Z,99511.31
2023-05-15T12:36:49.695Z,99513.13
2023-05-15T12:39:16.987Z,99515.84
2023-05-15T12:41:47.876Z,99516.09
2023-05-15T12:44:21.137Z,99510.12
2023-05-15T12:46:48.743Z,99516.44
2023-05-15T12:49:22.311Z,99519.34
2023-05-15T12:51:50.293Z,99509.00
2023-05-15T12:54:18.829Z,99496.44
2023-05-15T12:56:48.254Z,99490.22
2023-05-15T12:59:15.937Z,99493.94
2023-05-15T13:01:43.490Z,99493.31
2023-05-15T13:04:11.563Z,99489.50
2023-05-15T13:06:46.228Z,99478.56
2023-05-15T13:09:14.407Z,99489.47
2023-05-15T13:11:47.977Z,99491.81
2023-05-15T13:14:18.246Z,99496.91
2023-05-15T13:16:47.310Z,99488.00
2023-05-15T13:19:17.374Z,99488.25
2023-05-15T13:21:45.842Z,99476.19
2023-05-15T13:24:13.404Z,99480.09
2023-05-15T13:26:41.183Z,99470.50
2023-05-15T13:29:08.519Z,99467.81
2023-05-15T13:31:36.446Z,99469.53
2023-05-15T13:34:06.677Z,99464.31
2023-05-15T13:36:36.877Z,99459.28
2023-05-15T13:39:04.844Z,99464.97
2023-05-15T13:41:32.175Z,99459.16
2023-05-15T13:44:00.529Z,99460.09
2023-05-15T13:46:28.427Z,99449.44
2023-05-15T13:48:58.781Z,99463.78
2023-05-15T13:51:28.101Z,99459.44
2023-05-15T13:53:55.850Z,99456.91
2023-05-15T13:56:24.018Z,99468.63
2023-05-15T13:58:53.529Z,99460.06
2023-05-15T14:01:22.467Z,99464.81
2023-05-15T14:03:50.272Z,99467.03
2023-05-15T14:06:17.596Z,99461.53
2023-05-15T14:08:45.263Z,99469.03
2023-05-15T14:11:13.082Z,99468.37
2023-05-15T14:13:40.466Z,99476.16
2023-05-15T14:16:08.147Z,99467.13
2023-05-15T14:18:35.736Z,99474.19
2023-05-15T14:21:03.292Z,99473.03
2023-05-15T14:23:33.277Z,99479.62
2023-05-15T14:26:00.927Z,99466.84
2023-05-15T14:28:28.202Z,99469.75
2023-05-15T14:30:55.614Z,99474.91
2023-05-15T14:33:23.362Z,99478.00
2023-05-15T14:35:50.727Z,99478.88
2023-05-15T14:38:19.382Z,99473.16
2023-05-15T14:40:46.990Z,99475.59
2023-05-15T14:43:17.083Z,99478.16
2023-05-15T14:45:44.483Z,99480.44
2023-05-15T14:48:12.113Z,99483.78
2023-05-15T14:50:39.520Z,99481.88
2023-05-15T14:53:06.776Z,99480.84
2023-05-15T14:55:34.387Z,99485.53
2023-05-15T14:58:01.859Z,99480.25
2023-05-15T15:00:29.557Z,99487.59
2023-05-15T15:02:58.086Z,99488.59
2023-05-15T15:05:25.502Z,99487.03
2023-05-15T15:08:04.209Z,99485.66
2023-05-15T15:10:33.464Z,99497.56
2023-05-15T15:13:01.147Z,99495.03
2023-05-15T15:15:31.681Z,99493.78
2023-05-15T15:17:59.499Z,99502.78
2023-05-15T15:20:27.981Z,99507.22
2023-05-15T15:22:56.151Z,99518.22
2023-05-15T15:25:24.146Z,99519.47
2023-05-15T15:27:51.664Z,99512.87
2023-05-15T15:30:19.427Z,99516.81
2023-05-15T15:32:47.074Z,99517.91
2023-05-15T15:35:15.046Z,99512.50
2023-05-15T15:37:42.489Z,99524.88
2023-05-15T15:40:12.184Z,99526.94
2023-05-15T15:42:39.689Z,99522.69
2023-05-15T15:45:07.480Z,99526.41
2023-05-15T15:47:35.424Z,99528.13
2023-05-15T15:50:02.971Z,99531.78
2023-05-15T15:52:31.316Z,99526.94
2023-05-15T15:54:58.950Z,99525.62
2023-05-15T15:57:28.422Z,99528.13
2023-05-15T15:59:55.867Z,99527.53
2023-05-15T16:02:26.450Z,99532.22
2023-05-15T16:04:54.507Z,99523.75
2023-05-15T16:07:25.300Z,99527.59
2023-05-15T16:10:00.377Z,99528.53
2023-05-15T16:12:40.084Z,99521.53
2023-05-15T16:15:21.465Z,99525.88
2023-05-15T16:17:53.761Z,99530.81
2023-05-15T16:20:28.401Z,99524.62
2023-05-15T16:22:56.077Z,99531.78
2023-05-15T16:25:23.650Z,99528.25
2023-05-15T16:27:51.040Z,99533.84
2023-05-15T16:30:19.061Z,99542.66
2023-05-15T16:32:46.509Z,99548.97
2023-05-15T16:35:14.159Z,99540.34
2023-05-15T16:37:44.861Z,99548.56
2023-05-15T16:40:12.526Z,99545.66
2023-05-15T16:42:41.420Z,99546.06
2023-05-15T16:45:09.378Z,99549.97
2023-05-15T16:47:41.859Z,99540.06
2023-05-15T16:50:10.089Z,99542.56
2023-05-15T16:52:38.898Z,99535.94
2023-05-15T16:55:06.659Z,99543.31
2023-05-15T16:57:37.433Z,99534.94
2023-05-15T17:00:08.439Z,99537.97
2023-05-15T17:02:36.467Z,99534.75
2023-05-15T17:05:04.560Z,99548.94
2023-05-15T17:07:32.170Z,99552.16
2023-05-15T17:09:59.901Z,99556.34
2023-05-15T17:12:27.484Z,99556.72
2023-05-15T17:14:54.744Z,99562.06
2023-05-15T17:17:23.372Z,99572.75
2023-05-15T17:19:53.907Z,99572.94
2023-05-15T17:22:22.105Z,99575.38
2023-05-15T17:24:52.095Z,99580.25
2023-05-15T17:27:20.613Z,99582.84
2023-05-15T17:29:48.231Z,99586.25
2023-05-15T17:32:16.898Z,99581.84
2023-05-15T17:34:45.567Z,99586.84
2023-05-15T17:37:13.448Z,99586.75
2023-05-15T17:39:41.204Z,99592.75
2023-05-15T17:42:08.817Z,99587.66
2023-05-15T17:44:36.282Z,99582.50
2023-05-15T17:47:03.679Z,99587.03
2023-05-15T17:49:31.209Z,99585.62
2023-05-15T17:51:58.584Z,99580.22
2023-05-15T17:54:25.864Z,99589.69
2023-05-15T17:56:53.442Z,99586.94
2023-05-15T17:59:20.672Z,99573.50
2023-05-15T18:01:47.927Z,99570.09
2023-05-15T18:04:15.750Z,99571.44
2023-05-15T18:06:43.118Z,99569.84
2023-05-15T18:09:14.830Z,99570.28
2023-05-15T18:11:44.099Z,99569.66
2023-05-15T18:14:11.531Z,99566.06
2023-05-15T18:16:38.912Z,99575.72
2023-05-15T18:19:12.737Z,99583.06
2023-05-15T18:21:43.066Z,99584.16
2023-05-15T18:24:13.221Z,99592.62
2023-05-15T18:26:41.101Z,99602.38
2023-05-15T18:29:08.409Z,99593.06
2023-05-15T18:31:36.495Z,99601.66
2023-05-15T18:34:03.881Z,99605.34
2023-05-15T18:36:31.335Z,99616.19
2023-05-15T18:39:01.760Z,99620.13
2023-05-15T18:41:29.049Z,99613.16
2023-05-15T18:43:56.239Z,99630.53
2023-05-15T18:46:26.154Z,99630.22
2023-05-15T18:48:54.098Z,99635.75
2023-05-15T18:51:21.657Z,99642.50
2023-05-15T18:53:49.340Z,99645.34
2023-05-15T18:56:17.223Z,99643.00
2023-05-15T18:58:45.583Z,99639.06
2023-05-15T19:01:24.532Z,99640.72
2023-05-15T19:04:18.009Z,99643.37
2023-05-15T19:06:50.425Z,99646.69
2023-05-15T19:09:18.618Z,99645.72
2023-05-15T19:11:47.007Z,99642.13
2023-05-15T19:14:15.736Z,99639.12
2023-05-15T19:16:43.587Z,99631.84
2023-05-15T19:19:11.117Z,99643.37
2023-05-15T19:21:38.991Z,99640.72
2023-05-15T19:24:06.865Z,99642.25
2023-05-15T19:26:34.242Z,99647.72
2023-05-15T19:29:03.940Z,99660.56
2023-05-15T19:31:32.383Z,99655.56
2023-05-15T19:34:00.957Z,99642.25
2023-05-15T19:36:28.709Z,99644.91
2023-05-15T19:38:56.249Z,99650.22
2023-05-15T19:41:24.034Z,99637.47
2023-05-15T19:43:51.683Z,99647.94
2023-05-15T19:46:19.203Z,99646.59
2023-05-15T19:48:46.619Z,99642.97
2023-05-15T19:51:14.136Z,99658.09
2023-05-15T19:53:41.632Z,99634.66
2023-05-15T19:56:08.985Z,99639.66
2023-05-15T19:58:36.695Z,99639.50
2023-05-15T20:01:04.342Z,99638.31
2023-05-15T20:03:35.138Z,99637.31
2023-05-15T20:06:04.712Z,99640.34
2023-05-15T20:08:32.602Z,99652.81
2023-05-15T20:10:59.854Z,99655.16
2023-05-15T20:13:27.788Z,99656.31
2023-05-15T20:15:57.491Z,99649.78
2023-05-15T20:18:25.824Z,99649.97
2023-05-15T20:20:54.048Z,99661.62
2023-05-15T20:23:22.173Z,99668.78
2023-05-15T20:25:50.599Z,99670.09
2023-05-15T20:28:18.037Z,99672.13
2023-05-15T20:30:47.521Z,99668.59
2023-05-15T20:33:14.966Z,99679.91
2023-05-15T20:35:43.616Z,99686.88
2023-05-15T20:38:12.272Z,99673.78
2023-05-15T20:40:39.792Z,99683.75
2023-05-15T20:43:07.212Z,99681.41
2023-05-15T20:45:35.015Z,99682.41
2023-05-15T20:48:02.336Z,99679.91
2023-05-15T20:50:29.779Z,99680.75
2023-05-15T20:56:28.642Z,99667.63
2023-05-15T21:02:29.300Z,99678.09
2023-05-15T21:04:57.012Z,99686.25
2023-05-15T21:07:24.237Z,99681.41
2023-05-15T21:09:51.734Z,99687.47
2023-05-15T21:12:21.284Z,99688.91
2023-05-15T21:14:48.589Z,99683.91
2023-05-15T21:17:16.246Z,99676.47
2023-05-15T21:19:44.183Z,99676.28
2023-05-15T21:22:11.413Z,99681.63
2023-05-15T21:24:38.699Z,99686.09
2023-05-15T21:27:06.419Z,99680.28
2023-05-15T21:29:33.791Z,99680.44
2023-05-15T21:35:38.364Z,99680.59
2023-05-15T21:38:06.139Z,99686.75
2023-05-15T21:40:33.313Z,99677.59
2023-05-15T21:43:00.801Z,99688.56
2023-05-15T21:45:29.820Z,99692.25
2023-05-15T21:47:57.121Z,99699.56
2023-05-15T21:50:26.011Z,99691.22
2023-05-15T21:52:53.596Z,99704.53
2023-05-15T21:55:21.243Z,99711.19
2023-05-15T21:57:48.621Z,99702.38
2023-05-15T22:00:16.497Z,99714.19
2023-05-15T22:02:43.982Z,99718.50
2023-05-15T22:05:11.180Z,99723.12
2023-05-15T22:07:38.418Z,99717.81
2023-05-15T22:10:07.603Z,99726.47
2023-05-15T22:12:34.768Z,99721.16
2023-05-15T22:15:01.905Z,99729.78
2023-05-15T22:17:30.544Z,99734.78
2023-05-15T22:20:07.495Z,99738.09
2023-05-15T22:22:35.827Z,99741.94
2023-05-15T22:25:03.462Z,99744.25
2023-05-15T22:27:30.711Z,99739.09
2023-05-15T22:29:58.107Z,99737.09
2023-05-15T22:32:26.006Z,99738.41
2023-05-15T22:34:53.171Z,99715.84
2023-05-15T22:37:20.596Z,99717.97
2023-05-15T22:39:48.013Z,99724.97
2023-05-15T22:42:15.297Z,99722.47
2023-05-15T22:44:42.674Z,99712.13
2023-05-15T22:47:10.319Z,99712.63
2023-05-15T22:49:37.994Z,99716.28
2023-05-15T22:52:06.051Z,99711.13
2023-05-15T22:54:33.505Z,99696.97
2023-05-15T22:57:01.099Z,99707.06
2023-05-15T22:59:28.666Z,99703.75
2023-05-15T23:01:56.247Z,99701.13
2023-05-15T23:04:23.517Z,99703.28
2023-05-15T23:06:51.273Z,99696.66
2023-05-15T23:09:18.464Z,99691.88
2023-05-15T23:11:45.856Z,99697.19
2023-05-15T23:14:15.925Z,99691.88
2023-05-15T23:16:44.332Z,99694.06
2023-05-15T23:19:11.562Z,99695.03
2023-05-15T23:21:39.172Z,99696.56
2023-05-15T23:24:06.570Z,99694.91
2023-05-15T23:26:33.834Z,99683.22
2023-05-15T23:29:01.371Z,99685.22
2023-05-15T23:31:28.657Z,99684.38
2023-05-15T23:33:55.894Z,99681.22
2023-05-15T23:36:23.359Z,99679.91
2023-05-15T23:38:50.820Z,99675.25
2023-05-15T23:41:17.970Z,99678.41
2023-05-15T23:43:45.700Z,99679.25
2023-05-15T23:46:13.041Z,99675.56
2023-05-15T23:48:40.642Z,99666.44
2023-05-15T23:51:08.606Z,99677.56
2023-05-15T23:53:36.158Z,99673.59
2023-05-15T23:56:03.431Z,99673.41
2023-05-15T23:58:31.355Z,99668.41
